Time;durP1;ratioP1;P1;durP2;ratioP2;P2;SDS_P1;SDS_P2;PMS_P1;PMS_P2;Temp;Humidity;BMP_temperature;BMP_pressure;BME280_temperature;BME280_humidity;BME280_pressure;Samples;Min_cycle;Max_cycle;Signal;HPM_P1;HPM_P2
2023/06/28 00:01:51;;;;;;;8.77;5.93;;;;;;;16.84;100.00;100099.70;1449912;89;21346;-82
2023/06/28 00:04:17;;;;;;;12.07;6.83;;;;;;;16.83;100.00;100098.54;1457518;90;22247;-84
2023/06/28 00:06:43;;;;;;;12.70;5.97;;;;;;;16.80;100.00;100094.44;1446772;90;21494;-83
2023/06/28 00:09:10;;;;;;;14.27;6.63;;;;;;;16.75;100.00;100097.35;1440393;90;21456;-83
2023/06/28 00:11:36;;;;;;;13.23;6.60;;;;;;;16.69;100.00;100103.79;1448448;90;22336;-83
2023/06/28 00:14:02;;;;;;;10.90;6.07;;;;;;;16.65;100.00;100105.18;1452296;89;22402;-85
2023/06/28 00:16:28;;;;;;;11.50;5.83;;;;;;;16.63;100.00;100108.58;1440771;90;21376;-82
2023/06/28 00:19:00;;;;;;;10.63;6.43;;;;;;;16.61;100.00;100105.78;1453324;89;21301;-85
2023/06/28 00:21:23;;;;;;;13.03;6.53;;;;;;;16.59;100.00;100103.30;1458576;89;21515;-85
2023/06/28 00:23:49;;;;;;;8.90;6.37;;;;;;;16.58;100.00;100116.34;1451943;90;21516;-85
2023/06/28 00:26:15;;;;;;;9.83;5.90;;;;;;;16.55;100.00;100115.40;1457101;89;21317;-84
2023/06/28 00:28:41;;;;;;;11.90;6.03;;;;;;;16.55;100.00;100120.74;1454900;90;22432;-85
2023/06/28 00:31:07;;;;;;;9.10;5.47;;;;;;;16.54;100.00;100123.08;1449511;90;21538;-85
2023/06/28 00:33:34;;;;;;;19.27;7.30;;;;;;;16.59;100.00;100115.83;1455247;90;21464;-84
2023/06/28 00:36:00;;;;;;;8.57;5.67;;;;;;;16.60;100.00;100111.64;1454531;90;21522;-83
2023/06/28 00:38:26;;;;;;;11.17;5.97;;;;;;;16.57;100.00;100116.04;1453942;90;21331;-85
2023/06/28 00:40:52;;;;;;;16.87;6.77;;;;;;;16.53;100.00;100123.29;1449020;90;21294;-85
2023/06/28 00:43:19;;;;;;;17.77;6.20;;;;;;;16.50;100.00;100124.50;1450590;90;22118;-85
2023/06/28 00:45:45;;;;;;;8.63;6.73;;;;;;;16.49;100.00;100125.53;1454556;90;21353;-85
2023/06/28 00:48:11;;;;;;;15.73;6.33;;;;;;;16.46;100.00;100131.26;1455009;89;21994;-85
2023/06/28 00:50:38;;;;;;;10.57;6.17;;;;;;;16.43;100.00;100123.63;1449275;89;22234;-85
2023/06/28 00:53:05;;;;;;;9.27;5.90;;;;;;;16.40;100.00;100124.84;1443897;89;21434;-84
2023/06/28 00:55:31;;;;;;;7.97;5.53;;;;;;;16.37;100.00;100130.58;1456956;89;21331;-84
2023/06/28 00:57:58;;;;;;;22.50;5.93;;;;;;;16.33;100.00;100129.80;1449154;89;21391;-87
2023/06/28 01:00:26;;;;;;;9.27;5.57;;;;;;;16.29;100.00;100129.88;1456752;89;21426;-84
2023/06/28 01:02:53;;;;;;;11.67;6.07;;;;;;;16.29;100.00;100129.37;1457276;89;21383;-83
2023/06/28 01:05:20;;;;;;;11.40;6.50;;;;;;;16.28;100.00;100121.53;1454062;89;21530;-84
2023/06/28 01:07:47;;;;;;;16.37;6.23;;;;;;;16.28;100.00;100130.36;1442141;89;21464;-84
2023/06/28 01:10:17;;;;;;;6.67;5.13;;;;;;;16.31;100.00;100130.49;1443561;89;22514;-84
2023/06/28 01:12:43;;;;;;;9.40;5.75;;;;;;;16.32;100.00;100128.16;1443705;89;22478;-84
2023/06/28 01:15:10;;;;;;;7.20;5.57;;;;;;;16.30;100.00;100125.67;1453045;89;21375;-84
2023/06/28 01:17:37;;;;;;;10.77;6.10;;;;;;;16.29;100.00;100132.55;1453566;89;21383;-84
2023/06/28 01:20:04;;;;;;;8.30;5.47;;;;;;;16.26;100.00;100132.94;1455156;89;21508;-82
2023/06/28 01:22:32;;;;;;;14.37;6.60;;;;;;;16.23;100.00;100137.63;1449840;89;21535;-82
2023/06/28 01:24:58;;;;;;;12.47;6.57;;;;;;;16.24;100.00;100128.59;1448665;89;21360;-84
2023/06/28 01:27:25;;;;;;;7.13;5.87;;;;;;;16.28;100.00;100118.34;1447330;89;21405;-83
2023/06/28 01:29:56;;;;;;;17.37;5.30;;;;;;;16.30;100.00;100124.33;1453049;89;22286;-84
2023/06/28 01:32:20;;;;;;;13.43;5.83;;;;;;;16.29;100.00;100123.20;1451155;89;22284;-85
2023/06/28 01:34:46;;;;;;;9.93;6.00;;;;;;;16.28;100.00;100116.19;1440209;89;21627;-85
2023/06/28 01:37:12;;;;;;;12.00;6.07;;;;;;;16.26;100.00;100115.06;1456720;89;21457;-85
2023/06/28 01:39:39;;;;;;;8.53;5.60;;;;;;;16.31;100.00;100119.30;1453422;89;21427;-85
2023/06/28 01:42:06;;;;;;;6.53;5.80;;;;;;;16.36;100.00;100120.06;1449158;89;21449;-84
2023/06/28 01:44:33;;;;;;;11.23;6.70;;;;;;;16.37;100.00;100124.38;1455979;89;21515;-85
2023/06/28 01:46:59;;;;;;;10.90;6.50;;;;;;;16.36;100.00;100130.23;1448726;89;21405;-84
2023/06/28 01:49:25;;;;;;;12.50;6.70;;;;;;;16.33;100.00;100129.80;1452775;89;21404;-83
2023/06/28 01:51:54;;;;;;;9.37;6.50;;;;;;;16.33;100.00;100133.80;1450189;89;22351;-86
2023/06/28 01:54:20;;;;;;;8.83;5.27;;;;;;;16.30;100.00;100127.52;1444246;89;21456;-85
2023/06/28 01:56:46;;;;;;;11.33;6.17;;;;;;;16.29;100.00;100133.89;1458973;90;22292;-87
2023/06/28 01:59:13;;;;;;;9.53;6.03;;;;;;;16.27;100.00;100131.91;1461765;90;21411;-85
2023/06/28 02:01:41;;;;;;;8.33;6.03;;;;;;;16.26;100.00;100134.27;1455294;89;21375;-85
2023/06/28 02:04:07;;;;;;;12.00;6.53;;;;;;;16.20;100.00;100134.02;1452996;89;21376;-85
2023/06/28 02:06:33;;;;;;;12.40;6.27;;;;;;;16.19;100.00;100132.86;1449195;89;21279;-85
2023/06/28 02:08:59;;;;;;;11.93;6.20;;;;;;;16.18;100.00;100134.70;1450903;90;21824;-83
2023/06/28 02:11:27;;;;;;;11.80;5.67;;;;;;;16.19;100.00;100128.84;1455404;90;21514;-86
2023/06/28 02:13:53;;;;;;;9.60;5.70;;;;;;;16.15;100.00;100123.08;1446430;90;21501;-86
2023/06/28 02:16:22;;;;;;;10.07;5.87;;;;;;;16.16;100.00;100119.38;1454098;90;21450;-82
2023/06/28 02:18:47;;;;;;;12.70;6.27;;;;;;;16.15;100.00;100115.06;1450528;89;21603;-85
2023/06/28 02:21:14;;;;;;;11.20;6.63;;;;;;;16.17;100.00;100117.05;1447331;90;21475;-84
2023/06/28 02:23:40;;;;;;;8.03;5.67;;;;;;;16.16;100.00;100119.89;1453353;90;22448;-84
2023/06/28 02:26:06;;;;;;;9.10;6.40;;;;;;;16.13;100.00;100115.76;1449442;90;21383;-85
2023/06/28 02:28:32;;;;;;;10.63;6.40;;;;;;;16.12;100.00;100110.11;1447041;90;21487;-85
2023/06/28 02:30:58;;;;;;;9.87;5.87;;;;;;;16.14;100.00;100109.42;1451925;90;21434;-85
2023/06/28 02:33:25;;;;;;;9.30;5.50;;;;;;;16.17;100.00;100101.50;1451358;90;21427;-85
2023/06/28 02:35:51;;;;;;;8.37;6.03;;;;;;;16.21;100.00;100108.95;1455835;88;21531;-84
2023/06/28 02:38:17;;;;;;;9.30;6.17;;;;;;;16.21;100.00;100115.63;1455188;90;21450;-84
2023/06/28 02:40:43;;;;;;;9.23;6.50;;;;;;;16.22;100.00;100113.78;1455074;88;22381;-85
2023/06/28 02:43:09;;;;;;;10.43;5.90;;;;;;;16.20;100.00;100118.00;1452697;88;21301;-85
2023/06/28 02:45:35;;;;;;;10.47;6.33;;;;;;;16.17;100.00;100118.37;1450471;90;21830;-83
2023/06/28 02:48:01;;;;;;;7.07;5.90;;;;;;;16.12;100.00;100127.46;1445608;90;21442;-86
2023/06/28 02:50:28;;;;;;;6.70;5.77;;;;;;;16.08;100.00;100128.84;1457956;90;22248;-85
2023/06/28 02:52:54;;;;;;;5.63;5.10;;;;;;;16.06;100.00;100130.90;1453691;89;21736;-84
2023/06/28 02:55:20;;;;;;;8.93;5.37;;;;;;;16.04;100.00;100128.92;1450561;90;21361;-84
2023/06/28 02:57:47;;;;;;;6.60;5.40;;;;;;;16.02;100.00;100126.94;1452785;89;22407;-85
2023/06/28 03:00:14;;;;;;;6.80;5.90;;;;;;;16.03;100.00;100129.13;1451867;89;22336;-83
2023/06/28 03:02:41;;;;;;;6.97;6.00;;;;;;;16.03;100.00;100129.95;1453360;89;22476;-84
2023/06/28 03:05:08;;;;;;;10.50;4.83;;;;;;;16.03;100.00;100125.95;1452210;89;21383;-85
2023/06/28 03:07:34;;;;;;;9.27;5.97;;;;;;;16.05;100.00;100129.73;1442510;90;21398;-83
2023/06/28 03:10:00;;;;;;;8.00;5.17;;;;;;;16.06;100.00;100138.91;1451306;90;21323;-84
2023/06/28 03:12:26;;;;;;;5.73;5.10;;;;;;;16.07;100.00;100136.55;1451815;89;21434;-85
2023/06/28 03:14:53;;;;;;;6.93;5.23;;;;;;;16.07;100.00;100133.05;1440791;89;21413;-85
2023/06/28 03:17:19;;;;;;;11.03;5.23;;;;;;;16.09;100.00;100133.70;1457656;89;21480;-84
2023/06/28 03:19:45;;;;;;;9.83;5.43;;;;;;;16.09;100.00;100129.19;1446817;90;21360;-85
2023/06/28 03:22:12;;;;;;;12.03;5.90;;;;;;;16.12;100.00;100118.13;1443340;90;21398;-84
2023/06/28 03:24:38;;;;;;;7.87;6.40;;;;;;;16.15;100.00;100118.25;1454186;90;21309;-84
2023/06/28 03:27:07;;;;;;;8.73;5.77;;;;;;;16.16;100.00;100115.37;1455599;89;22314;-86
2023/06/28 03:29:34;;;;;;;10.37;6.23;;;;;;;16.20;100.00;100119.33;1441971;90;22307;-82
2023/06/28 03:32:00;;;;;;;11.50;6.60;;;;;;;16.24;100.00;100117.91;1455111;88;21441;-85
2023/06/28 03:34:26;;;;;;;11.73;6.47;;;;;;;16.29;100.00;100121.87;1458457;89;21317;-84
2023/06/28 03:36:53;;;;;;;9.87;6.33;;;;;;;16.28;100.00;100122.87;1455407;89;21650;-85
2023/06/28 03:39:19;;;;;;;11.13;6.33;;;;;;;16.30;100.00;100127.00;1442579;90;21368;-85
2023/06/28 03:41:45;;;;;;;10.47;6.00;;;;;;;16.32;100.00;100120.97;1454176;90;22278;-85
2023/06/28 03:44:13;;;;;;;13.50;6.23;;;;;;;16.37;100.00;100121.70;1453930;89;21464;-84
2023/06/28 03:46:39;;;;;;;6.33;5.00;;;;;;;16.42;100.00;100116.62;1453820;88;21523;-84
2023/06/28 03:49:05;;;;;;;10.23;6.27;;;;;;;16.48;100.00;100121.19;1453970;90;22241;-86
2023/06/28 03:51:31;;;;;;;9.70;6.43;;;;;;;16.52;100.00;100123.80;1449358;89;21450;-84
2023/06/28 03:53:57;;;;;;;8.37;6.33;;;;;;;16.57;100.00;100122.72;1455648;89;21522;-85
2023/06/28 03:56:23;;;;;;;7.70;6.67;;;;;;;16.56;100.00;100119.71;1452595;90;21346;-86
2023/06/28 03:58:50;;;;;;;7.40;6.03;;;;;;;16.57;100.00;100129.88;1452075;90;22145;-85
2023/06/28 04:01:18;;;;;;;8.43;6.43;;;;;;;16.58;100.00;100131.04;1450513;90;21613;-83
2023/06/28 04:03:44;;;;;;;6.93;5.20;;;;;;;16.57;100.00;100129.88;1448445;90;21397;-91
2023/06/28 04:06:10;;;;;;;8.40;5.80;;;;;;;16.56;100.00;100135.74;1448996;90;21368;-89
2023/06/28 04:08:37;;;;;;;6.30;4.50;;;;;;;16.53;100.00;100132.64;1442683;89;21508;-89
2023/06/28 04:11:03;;;;;;;7.10;5.23;;;;;;;16.53;100.00;100137.47;1455397;90;21727;-89
2023/06/28 04:13:29;;;;;;;5.40;4.53;;;;;;;16.52;100.00;100139.83;1448620;89;21516;-90
2023/06/28 04:15:56;;;;;;;16.70;5.23;;;;;;;16.55;100.00;100137.28;1453826;90;21361;-90
2023/06/28 04:18:22;;;;;;;8.53;5.07;;;;;;;16.58;100.00;100139.56;1451441;89;21368;-90
2023/06/28 04:20:48;;;;;;;8.70;5.23;;;;;;;16.53;100.00;100144.66;1447638;89;21384;-88
2023/06/28 04:23:14;;;;;;;10.37;5.67;;;;;;;16.52;100.00;100140.34;1447357;90;21404;-86
2023/06/28 04:25:42;;;;;;;12.53;5.00;;;;;;;16.50;100.00;100143.20;1447274;89;21582;-91
2023/06/28 04:28:08;;;;;;;6.77;4.87;;;;;;;16.45;100.00;100149.11;1456003;90;21316;-88
2023/06/28 04:30:34;;;;;;;12.13;4.77;;;;;;;16.43;100.00;100141.00;1461635;90;21464;-92
2023/06/28 04:33:04;;;;;;;14.30;5.30;;;;;;;16.42;100.00;100140.14;1446247;89;21412;-90
2023/06/28 04:35:30;;;;;;;8.73;4.83;;;;;;;16.50;100.00;100140.53;1461900;90;21449;-90
2023/06/28 04:37:56;;;;;;;9.50;4.90;;;;;;;16.52;100.00;100142.50;1452172;90;21361;-89
2023/06/28 04:40:22;;;;;;;8.87;5.03;;;;;;;16.52;100.00;100148.36;1446858;90;21368;-90
2023/06/28 04:42:49;;;;;;;10.67;5.90;;;;;;;16.52;100.00;100149.19;1453015;89;22447;-88
2023/06/28 04:45:16;;;;;;;20.37;5.13;;;;;;;16.59;100.00;100145.22;1454240;89;21419;-89
2023/06/28 04:47:42;;;;;;;7.40;4.80;;;;;;;16.62;100.00;100145.65;1439851;90;21390;-89
2023/06/28 04:50:09;;;;;;;8.40;4.97;;;;;;;16.70;100.00;100142.84;1453442;89;21427;-88
2023/06/28 04:52:35;;;;;;;8.70;5.40;;;;;;;16.78;100.00;100145.09;1455692;90;21426;-88
2023/06/28 04:55:02;;;;;;;9.40;5.77;;;;;;;16.86;100.00;100143.58;1453263;89;22285;-88
2023/06/28 04:57:28;;;;;;;8.77;4.73;;;;;;;17.02;100.00;100143.28;1452206;89;22304;-93
2023/06/28 04:59:55;;;;;;;11.87;5.87;;;;;;;17.12;100.00;100142.44;1447813;89;21497;-90
2023/06/28 05:02:24;;;;;;;12.23;4.77;;;;;;;17.17;100.00;100141.82;1448151;89;21309;-91
2023/06/28 05:04:51;;;;;;;10.23;4.80;;;;;;;17.21;100.00;100144.95;1452307;89;21383;-87
2023/06/28 05:07:17;;;;;;;10.30;3.85;;;;;;;17.20;100.00;100148.11;1443073;89;22432;-86
2023/06/28 05:09:43;;;;;;;8.68;3.52;;;;;;;17.20;100.00;100144.61;1446399;89;21347;-88
2023/06/28 05:12:10;;;;;;;14.28;4.42;;;;;;;17.20;100.00;100143.28;1443721;89;21397;-86
2023/06/28 05:14:36;;;;;;;9.30;3.95;;;;;;;17.23;100.00;100145.55;1452299;89;22308;-87
2023/06/28 05:17:02;;;;;;;6.25;4.17;;;;;;;17.24;100.00;100143.22;1454915;89;21420;-85
2023/06/28 05:19:28;;;;;;;12.28;4.70;;;;;;;17.21;100.00;100131.58;1447184;89;22000;-85
2023/06/28 05:21:55;;;;;;;5.25;3.90;;;;;;;17.22;100.00;100130.55;1451290;89;21480;-86
2023/06/28 05:24:22;;;;;;;8.08;3.92;;;;;;;17.20;100.00;100129.91;1449127;89;21309;-84
2023/06/28 05:26:48;;;;;;;9.68;4.25;;;;;;;17.24;100.00;100125.83;1444074;89;21434;-84
2023/06/28 05:29:14;;;;;;;9.03;4.03;;;;;;;17.27;100.00;100132.12;1452401;89;21776;-86
2023/06/28 05:31:42;;;;;;;8.70;3.25;;;;;;;17.35;100.00;100129.28;1451057;89;21368;-86
2023/06/28 05:34:08;;;;;;;7.87;4.33;;;;;;;17.46;100.00;100129.20;1451225;89;21612;-85
2023/06/28 05:36:34;;;;;;;8.73;4.10;;;;;;;17.48;100.00;100119.95;1452970;89;21309;-87
2023/06/28 05:39:00;;;;;;;26.57;4.40;;;;;;;17.46;99.94;100132.70;1445334;89;21356;-87
2023/06/28 05:41:38;;;;;;;6.72;3.70;;;;;;;17.41;99.80;100129.82;1445526;89;21674;-85
2023/06/28 05:44:05;;;;;;;10.48;4.40;;;;;;;17.44;100.00;100136.63;1424441;89;22315;-84
2023/06/28 05:46:31;;;;;;;8.30;3.30;;;;;;;17.48;98.69;100138.68;1453197;88;21420;-85
2023/06/28 05:49:08;;;;;;;7.05;3.60;;;;;;;17.63;100.00;100139.87;1446908;89;21441;-83
2023/06/28 05:51:35;;;;;;;11.35;3.70;;;;;;;17.76;97.67;100147.12;1452182;89;22211;-79
2023/06/28 05:54:01;;;;;;;4.58;3.58;;;;;;;17.91;97.71;100149.15;1450899;89;21486;-82
2023/06/28 05:56:29;;;;;;;9.88;3.20;;;;;;;18.00;94.23;100145.77;1453878;90;21891;-78
2023/06/28 05:58:57;;;;;;;7.53;3.22;;;;;;;18.16;95.92;100135.20;1450797;89;21376;-83
2023/06/28 06:01:24;;;;;;;7.90;2.83;;;;;;;18.30;95.18;100147.58;1377081;89;21496;-80
2023/06/28 06:03:50;;;;;;;5.53;2.95;;;;;;;18.47;92.93;100156.86;1377232;89;21236;-82
2023/06/28 06:06:18;;;;;;;11.97;4.03;;;;;;;18.49;91.58;100151.28;1377770;90;21206;-80
2023/06/28 06:08:44;;;;;;;5.60;2.92;;;;;;;18.46;86.45;100161.07;1376725;89;21288;-81
2023/06/28 06:11:10;;;;;;;6.08;2.52;;;;;;;18.39;85.07;100153.04;1522751;90;21442;-79
2023/06/28 06:13:36;;;;;;;11.68;2.65;;;;;;;18.30;84.47;100150.26;1378236;90;21339;-81
2023/06/28 06:16:02;;;;;;;3.42;2.02;;;;;;;18.30;85.82;100160.13;1384448;88;21385;-81
2023/06/28 06:18:28;;;;;;;9.38;2.17;;;;;;;18.31;84.59;100157.25;1377927;89;22216;-81
2023/06/28 06:20:54;;;;;;;3.50;2.08;;;;;;;18.32;84.52;100161.57;1378426;90;21380;-78
2023/06/28 06:23:21;;;;;;;4.60;2.20;;;;;;;18.43;84.99;100161.48;1378210;90;21251;-81
2023/06/28 06:25:47;;;;;;;5.10;3.20;;;;;;;18.43;84.05;100160.97;1378464;88;21488;-78
2023/06/28 06:28:13;;;;;;;3.30;2.52;;;;;;;18.47;83.79;100167.58;1378043;90;21421;-79
2023/06/28 06:30:39;;;;;;;11.08;3.27;;;;;;;18.48;84.63;100164.38;1378260;90;21198;-80
2023/06/28 06:33:05;;;;;;;4.75;2.20;;;;;;;18.52;84.58;100167.47;1378759;88;21294;-81
2023/06/28 06:35:32;;;;;;;6.28;2.62;;;;;;;18.46;83.80;100161.89;1378129;89;21220;-81
2023/06/28 06:37:58;;;;;;;7.40;2.60;;;;;;;18.41;81.54;100167.55;1378254;89;22050;-78
2023/06/28 06:40:24;;;;;;;13.65;3.02;;;;;;;18.38;82.63;100170.13;1378209;90;21302;-80
2023/06/28 06:42:50;;;;;;;8.35;2.15;;;;;;;18.39;81.31;100175.81;1378323;89;21391;-81
2023/06/28 06:45:19;;;;;;;6.15;2.95;;;;;;;18.43;82.64;100173.02;1378142;90;21331;-80
2023/06/28 06:47:45;;;;;;;11.93;1.90;;;;;;;18.54;84.07;100172.94;1376239;89;21376;-79
2023/06/28 06:50:13;;;;;;;3.00;1.47;;;;;;;18.66;83.91;100179.84;1377607;90;22377;-80
2023/06/28 06:52:40;;;;;;;4.00;2.12;;;;;;;18.87;83.00;100178.33;1376335;90;21376;-79
2023/06/28 06:55:07;;;;;;;4.47;2.10;;;;;;;19.09;81.77;100181.58;1383439;89;22411;-82
2023/06/28 06:57:33;;;;;;;3.05;1.70;;;;;;;19.28;80.66;100185.27;1377329;90;21213;-82
2023/06/28 06:59:59;;;;;;;5.47;1.82;;;;;;;19.52;80.36;100185.59;1378255;90;21465;-81
2023/06/28 07:02:25;;;;;;;4.15;1.70;;;;;;;19.75;77.04;100184.59;1410452;89;21435;-81
2023/06/28 07:04:52;;;;;;;9.85;2.27;;;;;;;19.86;76.22;100184.45;1454464;89;21434;-81
2023/06/28 07:07:18;;;;;;;11.80;1.65;;;;;;;19.90;76.65;100184.31;1445024;90;22450;-81
2023/06/28 07:09:44;;;;;;;5.08;1.70;;;;;;;20.02;77.09;100180.42;1447852;89;21390;-80
2023/06/28 07:12:11;;;;;;;4.37;1.90;;;;;;;19.98;73.56;100177.35;1456731;90;21434;-84
2023/06/28 07:14:39;;;;;;;2.90;1.35;;;;;;;19.94;72.44;100194.10;1451145;90;21611;-88
2023/06/28 07:17:06;;;;;;;3.20;1.42;;;;;;;19.92;72.17;100193.52;1447245;89;21538;-83
2023/06/28 07:19:32;;;;;;;5.03;1.85;;;;;;;19.89;72.75;100189.92;1450819;89;22483;-83
2023/06/28 07:21:58;;;;;;;4.42;1.30;;;;;;;19.89;72.27;100196.63;1453402;89;21384;-83
2023/06/28 07:24:24;;;;;;;5.17;1.27;;;;;;;19.86;72.35;100197.06;1449947;90;21592;-83
2023/06/28 07:26:50;;;;;;;2.55;1.22;;;;;;;19.92;73.46;100199.70;1456285;89;21492;-82
2023/06/28 07:29:16;;;;;;;2.87;1.35;;;;;;;19.96;73.01;100197.41;1453433;90;22241;-82
2023/06/28 07:31:42;;;;;;;4.78;1.60;;;;;;;19.99;68.89;100192.42;1451418;88;21382;-82
2023/06/28 07:34:09;;;;;;;2.65;1.25;;;;;;;20.04;70.68;100186.41;1447206;89;21457;-84
2023/06/28 07:36:35;;;;;;;6.58;1.30;;;;;;;20.07;70.21;100181.95;1451014;90;22270;-82
2023/06/28 07:39:01;;;;;;;6.33;1.37;;;;;;;20.14;69.03;100177.88;1447551;90;21398;-84
2023/06/28 07:41:28;;;;;;;2.90;1.50;;;;;;;20.17;68.55;100178.28;1448878;89;21398;-84
2023/06/28 07:43:54;;;;;;;1.72;1.00;;;;;;;20.32;70.17;100176.63;1450593;90;21456;-85
2023/06/28 07:46:20;;;;;;;4.20;1.42;;;;;;;20.42;69.22;100182.33;1458603;89;22314;-83
2023/06/28 07:48:50;;;;;;;5.12;1.12;;;;;;;20.53;68.85;100179.50;1449489;90;21347;-84
2023/06/28 07:51:16;;;;;;;8.65;1.37;;;;;;;20.55;66.34;100176.08;1447719;90;21781;-79
2023/06/28 07:53:43;;;;;;;3.98;1.62;;;;;;;20.52;64.81;100177.83;1450095;89;22314;-79
2023/06/28 07:56:09;;;;;;;3.37;1.30;;;;;;;20.46;65.77;100178.18;1454268;89;21478;-81
2023/06/28 07:58:38;;;;;;;5.10;1.47;;;;;;;20.49;63.93;100181.77;1458231;89;21589;-80
2023/06/28 08:01:05;;;;;;;6.08;1.25;;;;;;;20.60;65.80;100183.47;1450809;90;21354;-85
2023/06/28 08:03:31;;;;;;;6.35;1.20;;;;;;;20.75;65.12;100183.16;1456191;89;21597;-84
2023/06/28 08:05:57;;;;;;;1.90;1.10;;;;;;;20.95;66.21;100185.15;1452512;90;21391;-87
2023/06/28 08:08:23;;;;;;;2.02;1.25;;;;;;;21.17;66.79;100180.14;1454016;89;22256;-88
2023/06/28 08:10:49;;;;;;;4.30;1.15;;;;;;;21.25;64.98;100188.46;1457267;90;22447;-87
2023/06/28 08:13:15;;;;;;;5.25;1.50;;;;;;;21.16;63.18;100188.75;1455064;90;21612;-87
2023/06/28 08:15:42;;;;;;;7.92;2.92;;;;;;;21.12;63.19;100188.91;1450940;90;21396;-88
2023/06/28 08:18:09;;;;;;;3.30;1.50;;;;;;;21.03;64.51;100186.70;1456263;90;21406;-87
2023/06/28 08:20:38;;;;;;;2.95;1.50;;;;;;;20.86;59.71;100187.30;1453396;90;21310;-87
2023/06/28 08:23:04;;;;;;;3.22;1.22;;;;;;;20.85;63.97;100186.16;1456988;90;22492;-79
2023/06/28 08:25:30;;;;;;;2.67;1.37;;;;;;;20.88;65.32;100180.34;1452636;90;21415;-82
2023/06/28 08:27:56;;;;;;;4.65;1.20;;;;;;;21.13;65.77;100176.27;1445984;90;21419;-81
2023/06/28 08:30:22;;;;;;;4.90;1.27;;;;;;;21.54;65.96;100176.97;1457420;90;21368;-81
2023/06/28 08:32:48;;;;;;;2.42;1.15;;;;;;;21.94;65.40;100176.45;1454558;90;21523;-83
2023/06/28 08:35:14;;;;;;;3.98;1.30;;;;;;;22.15;63.90;100170.25;1457157;90;21331;-81
2023/06/28 08:37:40;;;;;;;3.50;1.35;;;;;;;22.35;63.95;100172.69;1454587;90;21353;-81
2023/06/28 08:40:07;;;;;;;5.10;1.60;;;;;;;22.28;62.74;100176.30;1447252;90;21479;-82
2023/06/28 08:42:34;;;;;;;2.92;1.42;;;;;;;22.22;64.21;100182.63;1444385;90;21567;-80
2023/06/28 08:45:03;;;;;;;4.10;1.47;;;;;;;22.19;64.76;100182.27;1451292;90;21317;-81
2023/06/28 08:47:30;;;;;;;2.67;1.30;;;;;;;22.09;63.74;100184.94;1445089;89;21472;-81
2023/06/28 08:49:57;;;;;;;3.70;1.30;;;;;;;21.83;62.11;100181.27;1452095;90;21582;-81
2023/06/28 08:52:25;;;;;;;7.90;2.20;;;;;;;21.63;63.86;100186.37;1448451;89;22033;-82
2023/06/28 08:54:52;;;;;;;4.30;1.35;;;;;;;21.56;63.97;100188.88;1450256;89;22336;-87
2023/06/28 08:57:19;;;;;;;4.92;1.47;;;;;;;;;;1459438;89;21501;-87
2023/06/28 08:59:46;;;;;;;6.10;1.50;;;;;;;21.45;62.61;100197.17;1456008;89;21324;-86
2023/06/28 09:02:19;;;;;;;6.85;2.72;;;;;;;21.53;64.10;100197.40;1453434;90;21458;-86
2023/06/28 09:04:48;;;;;;;4.30;1.17;;;;;;;21.54;63.19;100193.12;1450239;89;21360;-86
2023/06/28 09:07:17;;;;;;;3.40;1.40;;;;;;;;;;1458070;89;22308;-84
2023/06/28 09:09:52;;;;;;;14.03;2.00;;;;;;;21.31;62.05;100191.07;1454316;89;22320;-86
2023/06/28 09:12:17;;;;;;;6.97;1.32;;;;;;;21.29;62.94;100182.92;1447192;89;21582;-87
2023/06/28 09:14:43;;;;;;;4.22;1.35;;;;;;;21.34;63.70;100178.51;1454788;89;21504;-85
2023/06/28 09:17:10;;;;;;;2.27;1.20;;;;;;;21.32;60.72;100186.01;1452966;90;22264;-86
2023/06/28 09:19:37;;;;;;;4.62;1.27;;;;;;;21.18;59.75;100186.66;1457967;89;21301;-85
2023/06/28 09:22:05;;;;;;;4.95;1.40;;;;;;;20.96;60.90;100185.44;1452062;90;21324;-85
2023/06/28 09:24:35;;;;;;;3.10;1.40;;;;;;;20.88;62.95;100181.68;1451256;90;21435;-85
2023/06/28 09:27:05;;;;;;;5.58;1.42;;;;;;;20.93;63.34;100179.16;1456980;88;21420;-88
2023/06/28 09:29:32;;;;;;;3.90;1.52;;;;;;;20.99;64.85;100178.27;1454442;89;22263;-87
2023/06/28 09:32:00;;;;;;;4.42;1.65;;;;;;;21.08;65.13;100174.23;1457537;90;21426;-86
2023/06/28 09:34:26;;;;;;;6.33;1.62;;;;;;;21.12;66.05;100170.07;1455931;89;22285;-86
2023/06/28 09:36:54;;;;;;;5.80;1.57;;;;;;;21.37;66.45;100163.28;1454071;89;21397;-85
2023/06/28 09:39:20;;;;;;;3.30;1.60;;;;;;;21.71;65.23;100164.23;1454467;89;21605;-85
2023/06/28 09:41:48;;;;;;;5.28;2.35;;;;;;;21.87;62.65;100151.49;1451310;90;21435;-85
2023/06/28 09:44:14;;;;;;;3.47;1.40;;;;;;;22.07;64.02;100145.29;1430330;90;21427;-88
2023/06/28 09:46:47;;;;;;;3.60;1.47;;;;;;;22.42;63.28;100144.57;1451234;90;22158;-85
2023/06/28 09:49:24;;;;;;;5.37;1.55;;;;;;;22.82;62.06;100145.24;1455497;90;22307;-86
2023/06/28 09:52:04;;;;;;;2.72;1.35;;;;;;;23.05;56.49;100142.27;1449185;89;22390;-84
2023/06/28 09:54:37;;;;;;;2.70;1.42;;;;;;;23.23;53.17;100149.40;1447667;89;22381;-84
2023/06/28 09:57:04;;;;;;;3.83;1.40;;;;;;;23.61;52.54;100149.63;1455292;90;21693;-84
2023/06/28 09:59:34;;;;;;;3.95;1.12;;;;;;;23.87;45.30;100153.67;1459325;90;21486;-83
2023/06/28 10:02:05;;;;;;;4.47;1.52;;;;;;;23.89;44.49;100148.58;1448696;90;22438;-86
2023/06/28 10:04:33;;;;;;;6.00;1.32;;;;;;;23.75;46.29;100150.20;1453427;88;21376;-85
2023/06/28 10:07:02;;;;;;;7.17;1.80;;;;;;;23.49;46.79;100156.14;1455313;88;22175;-87
2023/06/28 10:09:39;;;;;;;2.92;1.20;;;;;;;23.10;47.76;100161.25;1449887;88;22248;-85
2023/06/28 10:12:16;;;;;;;2.98;0.93;;;;;;;22.86;48.16;100157.73;1456296;88;21412;-85
2023/06/28 10:14:56;;;;;;;2.85;1.20;;;;;;;22.49;48.29;100160.63;1455675;90;21419;-86
2023/06/28 10:17:24;;;;;;;1.75;0.85;;;;;;;21.98;48.80;100184.39;1506447;90;21360;-89
2023/06/28 10:19:50;;;;;;;7.33;1.02;;;;;;;20.71;45.82;100205.12;1445537;90;21868;-84
2023/06/28 10:22:17;;;;;;;1.72;1.17;;;;;;;19.92;49.34;100210.97;1460712;90;22339;-85
2023/06/28 10:24:44;;;;;;;21.87;3.70;;;;;;;19.32;57.33;100234.77;1450719;88;21369;-84
2023/06/28 10:27:12;;;;;;;18.10;3.20;;;;;;;18.60;64.61;100263.23;1446810;88;21368;-84
2023/06/28 10:29:39;;;;;;;11.70;2.87;;;;;;;18.10;63.70;100251.17;1455299;90;21324;-83
2023/06/28 10:32:08;;;;;;;8.10;2.33;;;;;;;17.63;63.20;100216.65;1456872;90;21420;-84
2023/06/28 10:34:36;;;;;;;8.23;2.50;;;;;;;17.27;63.17;100204.33;1455049;90;21354;-83
2023/06/28 10:37:02;;;;;;;8.28;2.25;;;;;;;16.89;63.92;100200.17;1454077;88;21456;-84
2023/06/28 10:39:31;;;;;;;7.42;2.72;;;;;;;16.69;69.63;100194.64;1457569;90;21524;-83
2023/06/28 10:41:57;;;;;;;9.73;2.67;;;;;;;16.78;76.13;100181.17;1446231;90;21353;-82
2023/06/28 10:44:24;;;;;;;5.53;1.37;;;;;;;17.08;78.33;100158.53;1455772;88;21354;-85
2023/06/28 10:47:15;;;;;;;4.55;1.82;;;;;;;17.49;78.40;100153.73;1451794;90;21471;-83
2023/06/28 10:49:41;;;;;;;4.10;1.72;;;;;;;18.00;77.50;100151.12;1455624;90;21442;-83
2023/06/28 10:52:15;;;;;;;1.77;1.37;;;;;;;18.56;79.53;100152.61;1458645;90;22197;-85
2023/06/28 10:54:41;;;;;;;1.98;1.42;;;;;;;18.98;76.57;100151.89;1454439;90;21345;-84
2023/06/28 10:57:11;;;;;;;2.60;1.60;;;;;;;19.42;74.11;100162.39;1451372;89;21434;-84
2023/06/28 10:59:42;;;;;;;1.37;1.27;;;;;;;19.77;69.90;100152.18;1452576;89;22587;-85
2023/06/28 11:02:08;;;;;;;1.22;1.12;;;;;;;20.04;68.88;100146.13;1443381;89;21405;-85
2023/06/28 11:04:51;;;;;;;5.67;1.35;;;;;;;20.27;65.01;100142.86;1444054;90;21331;-85
2023/06/28 11:07:23;;;;;;;1.95;0.93;;;;;;;20.50;64.28;100151.68;1454783;89;21453;-84
2023/06/28 11:10:11;;;;;;;3.02;1.35;;;;;;;20.77;63.76;100152.81;1459823;90;21530;-84
2023/06/28 11:12:40;;;;;;;2.47;1.47;;;;;;;20.99;62.36;100145.98;1451678;89;21538;-87
2023/06/28 11:15:10;;;;;;;2.90;1.45;;;;;;;21.20;58.91;100154.13;1448125;89;21456;-84
2023/06/28 11:17:36;;;;;;;2.25;1.30;;;;;;;21.43;62.83;100154.83;1448454;89;21419;-85
2023/06/28 11:20:13;;;;;;;2.00;1.10;;;;;;;21.61;61.77;100152.14;1448719;89;21472;-86